Granger, Texas
Current Conditions -  °F | °C
As of 9:58 AM on Monday 24 Nov 2014 (Local Time) from KGRK Reporting Station
Broken Clouds Broken Clouds  
Wind Chill: 53°   Ceiling: 23000
Heat Index: 53°   Visibility: 10mi
Dew Point: 28°   Wind: 15mph
Humidity: 38%   Direction: 340°NNW
Pressure: 30.1"   Gusts: NA
Location:  30.72°N, 97.44°W
Report Text: KGRK 241558Z AUTO 34013KT 10SM BKN230 12/M02 A3010 RMK AO2 SLP192 T01161022
Loading
Personal Weather Stations






























Interactive Weather Map New forecast layout! Learn more

10-Day Weather Forecast

Advertisements
Track Severe Weather on mobile